sensor_id;sensor_type;location;lat;lon;timestamp;temperature;humidity
39621;DHT22;25309;48.686;9.170;2023-03-01T00:01:05;1.50;95.10
39621;DHT22;25309;48.686;9.170;2023-03-01T00:03:32;1.50;95.10
39621;DHT22;25309;48.686;9.170;2023-03-01T00:06:00;1.40;95.20
39621;DHT22;25309;48.686;9.170;2023-03-01T00:08:27;1.40;95.20
39621;DHT22;25309;48.686;9.170;2023-03-01T00:11:01;1.40;95.30
39621;DHT22;25309;48.686;9.170;2023-03-01T00:13:28;1.40;95.30
39621;DHT22;25309;48.686;9.170;2023-03-01T00:15:55;1.30;95.30
39621;DHT22;25309;48.686;9.170;2023-03-01T00:18:24;1.30;95.30
39621;DHT22;25309;48.686;9.170;2023-03-01T00:20:51;1.30;95.30
39621;DHT22;25309;48.686;9.170;2023-03-01T00:23:18;1.30;95.40
39621;DHT22;25309;48.686;9.170;2023-03-01T00:25:45;1.30;95.40
39621;DHT22;25309;48.686;9.170;2023-03-01T00:28:12;1.30;95.50
39621;DHT22;25309;48.686;9.170;2023-03-01T00:30:39;1.30;95.50
39621;DHT22;25309;48.686;9.170;2023-03-01T00:33:06;1.30;95.50
39621;DHT22;25309;48.686;9.170;2023-03-01T00:35:35;1.20;95.50
39621;DHT22;25309;48.686;9.170;2023-03-01T00:38:03;1.20;95.50
39621;DHT22;25309;48.686;9.170;2023-03-01T00:40:32;1.20;95.60
39621;DHT22;25309;48.686;9.170;2023-03-01T00:43:00;1.20;95.70
39621;DHT22;25309;48.686;9.170;2023-03-01T00:45:27;1.10;95.60
39621;DHT22;25309;48.686;9.170;2023-03-01T00:47:54;1.10;95.60
39621;DHT22;25309;48.686;9.170;2023-03-01T00:50:21;1.10;95.70
39621;DHT22;25309;48.686;9.170;2023-03-01T00:52:52;1.10;95.70
39621;DHT22;25309;48.686;9.170;2023-03-01T00:55:19;1.10;95.80
39621;DHT22;25309;48.686;9.170;2023-03-01T00:57:46;1.00;95.80
39621;DHT22;25309;48.686;9.170;2023-03-01T01:00:14;1.00;95.80
39621;DHT22;25309;48.686;9.170;2023-03-01T01:02:41;1.00;95.90
39621;DHT22;25309;48.686;9.170;2023-03-01T01:05:08;1.00;95.90
39621;DHT22;25309;48.686;9.170;2023-03-01T01:07:35;1.00;95.90
39621;DHT22;25309;48.686;9.170;2023-03-01T01:10:06;1.00;95.90
39621;DHT22;25309;48.686;9.170;2023-03-01T01:12:33;1.00;95.90
39621;DHT22;25309;48.686;9.170;2023-03-01T01:15:00;1.00;96.00
39621;DHT22;25309;48.686;9.170;2023-03-01T01:17:27;0.90;96.00
39621;DHT22;25309;48.686;9.170;2023-03-01T01:19:54;0.90;96.00
39621;DHT22;25309;48.686;9.170;2023-03-01T01:22:21;0.90;96.10
39621;DHT22;25309;48.686;9.170;2023-03-01T01:24:48;0.90;96.10
39621;DHT22;25309;48.686;9.170;2023-03-01T01:27:16;0.90;96.20
39621;DHT22;25309;48.686;9.170;2023-03-01T01:29:43;0.90;96.60
39621;DHT22;25309;48.686;9.170;2023-03-01T01:32:10;0.90;96.20
39621;DHT22;25309;48.686;9.170;2023-03-01T01:34:37;0.90;96.30
39621;DHT22;25309;48.686;9.170;2023-03-01T01:37:05;0.90;96.30
39621;DHT22;25309;48.686;9.170;2023-03-01T01:39:34;0.80;96.40
39621;DHT22;25309;48.686;9.170;2023-03-01T01:42:01;0.80;96.40
39621;DHT22;25309;48.686;9.170;2023-03-01T01:44:30;0.70;96.40
39621;DHT22;25309;48.686;9.170;2023-03-01T01:46:59;0.80;96.50
39621;DHT22;25309;48.686;9.170;2023-03-01T01:49:31;0.80;96.50
39621;DHT22;25309;48.686;9.170;2023-03-01T01:52:07;0.80;96.50
39621;DHT22;25309;48.686;9.170;2023-03-01T01:54:40;0.70;96.60
39621;DHT22;25309;48.686;9.170;2023-03-01T01:57:13;0.70;96.70
39621;DHT22;25309;48.686;9.170;2023-03-01T01:59:45;0.80;96.70
39621;DHT22;25309;48.686;9.170;2023-03-01T02:02:13;0.80;96.70
39621;DHT22;25309;48.686;9.170;2023-03-01T02:04:40;0.90;96.70
39621;DHT22;25309;48.686;9.170;2023-03-01T02:07:13;0.90;96.70
39621;DHT22;25309;48.686;9.170;2023-03-01T02:09:45;1.00;96.60
39621;DHT22;25309;48.686;9.170;2023-03-01T02:12:13;1.00;96.50
39621;DHT22;25309;48.686;9.170;2023-03-01T02:14:42;1.10;96.50
39621;DHT22;25309;48.686;9.170;2023-03-01T02:17:10;1.10;96.50
39621;DHT22;25309;48.686;9.170;2023-03-01T02:19:48;1.20;96.50
39621;DHT22;25309;48.686;9.170;2023-03-01T02:22:22;1.20;96.50
39621;DHT22;25309;48.686;9.170;2023-03-01T02:24:57;1.20;96.50
39621;DHT22;25309;48.686;9.170;2023-03-01T02:27:36;1.20;96.50
39621;DHT22;25309;48.686;9.170;2023-03-01T02:30:06;1.20;96.50
39621;DHT22;25309;48.686;9.170;2023-03-01T02:32:34;1.30;96.50
39621;DHT22;25309;48.686;9.170;2023-03-01T02:35:02;1.30;96.50
39621;DHT22;25309;48.686;9.170;2023-03-01T02:37:35;1.30;96.50
39621;DHT22;25309;48.686;9.170;2023-03-01T02:40:06;1.30;96.50
39621;DHT22;25309;48.686;9.170;2023-03-01T02:42:40;1.30;96.50
39621;DHT22;25309;48.686;9.170;2023-03-01T02:45:09;1.30;96.60
39621;DHT22;25309;48.686;9.170;2023-03-01T02:47:37;1.30;96.50
39621;DHT22;25309;48.686;9.170;2023-03-01T02:50:13;1.40;96.60
39621;DHT22;25309;48.686;9.170;2023-03-01T02:52:47;1.40;96.60
39621;DHT22;25309;48.686;9.170;2023-03-01T02:55:19;1.40;96.60
39621;DHT22;25309;48.686;9.170;2023-03-01T02:57:47;1.40;96.60
39621;DHT22;25309;48.686;9.170;2023-03-01T03:00:21;1.40;96.60
39621;DHT22;25309;48.686;9.170;2023-03-01T03:02:51;1.40;96.60
39621;DHT22;25309;48.686;9.170;2023-03-01T03:05:22;1.40;96.50
39621;DHT22;25309;48.686;9.170;2023-03-01T03:07:53;1.50;96.60
39621;DHT22;25309;48.686;9.170;2023-03-01T03:10:22;1.40;96.60
39621;DHT22;25309;48.686;9.170;2023-03-01T03:12:49;1.50;96.70
39621;DHT22;25309;48.686;9.170;2023-03-01T03:15:19;1.40;96.70
39621;DHT22;25309;48.686;9.170;2023-03-01T03:17:47;1.40;96.70
39621;DHT22;25309;48.686;9.170;2023-03-01T03:22:46;1.40;96.80
39621;DHT22;25309;48.686;9.170;2023-03-01T03:25:14;1.40;96.80
39621;DHT22;25309;48.686;9.170;2023-03-01T03:27:43;1.40;96.90
39621;DHT22;25309;48.686;9.170;2023-03-01T03:30:12;1.40;96.90
39621;DHT22;25309;48.686;9.170;2023-03-01T03:32:43;1.40;96.90
39621;DHT22;25309;48.686;9.170;2023-03-01T03:35:20;1.40;96.90
39621;DHT22;25309;48.686;9.170;2023-03-01T03:37:47;1.40;96.80
39621;DHT22;25309;48.686;9.170;2023-03-01T03:40:31;1.40;96.70
39621;DHT22;25309;48.686;9.170;2023-03-01T03:42:58;1.40;96.70
39621;DHT22;25309;48.686;9.170;2023-03-01T03:45:25;1.40;96.70
39621;DHT22;25309;48.686;9.170;2023-03-01T03:47:54;1.40;96.80
39621;DHT22;25309;48.686;9.170;2023-03-01T03:50:21;1.40;96.80
39621;DHT22;25309;48.686;9.170;2023-03-01T03:52:47;1.40;96.80
39621;DHT22;25309;48.686;9.170;2023-03-01T03:55:14;1.40;96.80
39621;DHT22;25309;48.686;9.170;2023-03-01T03:57:47;1.40;96.80
39621;DHT22;25309;48.686;9.170;2023-03-01T04:00:19;1.30;96.90
39621;DHT22;25309;48.686;9.170;2023-03-01T04:02:48;1.40;96.80
39621;DHT22;25309;48.686;9.170;2023-03-01T04:05:18;1.40;96.90
39621;DHT22;25309;48.686;9.170;2023-03-01T04:07:45;1.40;96.80
39621;DHT22;25309;48.686;9.170;2023-03-01T04:10:15;1.40;96.80
39621;DHT22;25309;48.686;9.170;2023-03-01T04:12:43;1.40;96.90
39621;DHT22;25309;48.686;9.170;2023-03-01T04:15:11;1.40;96.90
39621;DHT22;25309;48.686;9.170;2023-03-01T04:17:41;1.40;96.80
39621;DHT22;25309;48.686;9.170;2023-03-01T04:20:09;1.40;96.90
39621;DHT22;25309;48.686;9.170;2023-03-01T04:22:40;1.40;96.90
39621;DHT22;25309;48.686;9.170;2023-03-01T04:25:07;1.50;97.00
39621;DHT22;25309;48.686;9.170;2023-03-01T04:27:35;1.50;97.00
39621;DHT22;25309;48.686;9.170;2023-03-01T04:30:02;1.50;96.90
39621;DHT22;25309;48.686;9.170;2023-03-01T04:32:30;1.50;96.90
39621;DHT22;25309;48.686;9.170;2023-03-01T04:34:57;1.40;97.00
39621;DHT22;25309;48.686;9.170;2023-03-01T04:37:24;1.40;97.00
39621;DHT22;25309;48.686;9.170;2023-03-01T04:39:53;1.40;97.00
39621;DHT22;25309;48.686;9.170;2023-03-01T04:42:20;1.40;97.00
39621;DHT22;25309;48.686;9.170;2023-03-01T04:44:47;1.40;97.00
39621;DHT22;25309;48.686;9.170;2023-03-01T04:47:14;1.40;97.00
39621;DHT22;25309;48.686;9.170;2023-03-01T04:49:41;1.40;97.00
39621;DHT22;25309;48.686;9.170;2023-03-01T04:52:08;1.50;97.00
39621;DHT22;25309;48.686;9.170;2023-03-01T04:54:36;1.50;97.10
39621;DHT22;25309;48.686;9.170;2023-03-01T04:57:04;1.50;97.00
39621;DHT22;25309;48.686;9.170;2023-03-01T04:59:31;1.50;97.00
39621;DHT22;25309;48.686;9.170;2023-03-01T05:01:58;1.50;97.00
39621;DHT22;25309;48.686;9.170;2023-03-01T05:04:27;1.50;97.10
39621;DHT22;25309;48.686;9.170;2023-03-01T05:06:54;1.50;97.20
39621;DHT22;25309;48.686;9.170;2023-03-01T05:09:21;1.40;97.10
39621;DHT22;25309;48.686;9.170;2023-03-01T05:11:48;1.50;97.10
39621;DHT22;25309;48.686;9.170;2023-03-01T05:14:16;1.50;97.10
39621;DHT22;25309;48.686;9.170;2023-03-01T05:16:43;1.50;97.10
39621;DHT22;25309;48.686;9.170;2023-03-01T05:19:10;1.50;97.10
39621;DHT22;25309;48.686;9.170;2023-03-01T05:21:42;1.50;97.10
39621;DHT22;25309;48.686;9.170;2023-03-01T05:24:28;1.50;97.10
39621;DHT22;25309;48.686;9.170;2023-03-01T05:26:55;1.50;97.10
39621;DHT22;25309;48.686;9.170;2023-03-01T05:29:24;1.50;97.20
39621;DHT22;25309;48.686;9.170;2023-03-01T05:31:52;1.50;97.20
39621;DHT22;25309;48.686;9.170;2023-03-01T05:34:23;1.50;97.20
39621;DHT22;25309;48.686;9.170;2023-03-01T05:36:50;1.50;97.20
39621;DHT22;25309;48.686;9.170;2023-03-01T05:39:20;1.60;97.20
39621;DHT22;25309;48.686;9.170;2023-03-01T05:41:52;1.60;97.20
39621;DHT22;25309;48.686;9.170;2023-03-01T05:44:20;1.60;97.20
39621;DHT22;25309;48.686;9.170;2023-03-01T05:46:48;1.60;97.20
39621;DHT22;25309;48.686;9.170;2023-03-01T05:49:16;1.60;97.30
39621;DHT22;25309;48.686;9.170;2023-03-01T05:51:47;1.60;97.80
39621;DHT22;25309;48.686;9.170;2023-03-01T05:54:14;1.70;97.50
39621;DHT22;25309;48.686;9.170;2023-03-01T05:56:41;1.70;97.40
39621;DHT22;25309;48.686;9.170;2023-03-01T05:59:08;1.70;97.40
39621;DHT22;25309;48.686;9.170;2023-03-01T06:01:36;1.70;97.30
39621;DHT22;25309;48.686;9.170;2023-03-01T06:04:04;1.70;97.30
39621;DHT22;25309;48.686;9.170;2023-03-01T06:06:33;1.70;97.20
39621;DHT22;25309;48.686;9.170;2023-03-01T06:09:01;1.80;97.20
39621;DHT22;25309;48.686;9.170;2023-03-01T06:11:28;1.70;97.20
39621;DHT22;25309;48.686;9.170;2023-03-01T06:13:54;1.70;97.20
39621;DHT22;25309;48.686;9.170;2023-03-01T06:16:21;1.70;97.20
39621;DHT22;25309;48.686;9.170;2023-03-01T06:18:48;1.70;97.20
39621;DHT22;25309;48.686;9.170;2023-03-01T06:21:16;1.70;97.20
39621;DHT22;25309;48.686;9.170;2023-03-01T06:23:43;1.70;97.20
39621;DHT22;25309;48.686;9.170;2023-03-01T06:26:10;1.80;97.20
39621;DHT22;25309;48.686;9.170;2023-03-01T06:28:37;1.80;97.20
39621;DHT22;25309;48.686;9.170;2023-03-01T06:31:04;1.80;97.20
39621;DHT22;25309;48.686;9.170;2023-03-01T06:33:35;1.80;97.20
39621;DHT22;25309;48.686;9.170;2023-03-01T06:36:03;1.80;97.10
39621;DHT22;25309;48.686;9.170;2023-03-01T06:38:31;1.80;97.10
39621;DHT22;25309;48.686;9.170;2023-03-01T06:40:58;1.80;97.20
39621;DHT22;25309;48.686;9.170;2023-03-01T06:43:25;1.80;97.10
39621;DHT22;25309;48.686;9.170;2023-03-01T06:45:52;1.80;97.00
39621;DHT22;25309;48.686;9.170;2023-03-01T06:48:19;1.90;97.00
39621;DHT22;25309;48.686;9.170;2023-03-01T06:50:46;1.90;97.00
39621;DHT22;25309;48.686;9.170;2023-03-01T06:53:13;1.90;96.90
39621;DHT22;25309;48.686;9.170;2023-03-01T06:55:41;2.00;96.80
39621;DHT22;25309;48.686;9.170;2023-03-01T06:58:09;2.00;96.90
39621;DHT22;25309;48.686;9.170;2023-03-01T07:00:36;2.00;96.80
39621;DHT22;25309;48.686;9.170;2023-03-01T07:03:03;2.00;96.80
39621;DHT22;25309;48.686;9.170;2023-03-01T07:05:30;2.00;96.70
39621;DHT22;25309;48.686;9.170;2023-03-01T07:07:57;2.00;96.80
39621;DHT22;25309;48.686;9.170;2023-03-01T07:10:24;1.90;96.80
39621;DHT22;25309;48.686;9.170;2023-03-01T07:12:55;1.90;96.90
39621;DHT22;25309;48.686;9.170;2023-03-01T07:15:22;2.00;96.80
39621;DHT22;25309;48.686;9.170;2023-03-01T07:17:49;2.00;96.90
39621;DHT22;25309;48.686;9.170;2023-03-01T07:20:18;2.00;97.20
39621;DHT22;25309;48.686;9.170;2023-03-01T07:22:45;2.00;97.40
39621;DHT22;25309;48.686;9.170;2023-03-01T07:25:12;2.10;97.30
39621;DHT22;25309;48.686;9.170;2023-03-01T07:27:39;2.10;96.90
39621;DHT22;25309;48.686;9.170;2023-03-01T07:30:09;2.20;96.80
39621;DHT22;25309;48.686;9.170;2023-03-01T07:32:36;2.20;96.60
39621;DHT22;25309;48.686;9.170;2023-03-01T07:35:03;2.30;96.60
39621;DHT22;25309;48.686;9.170;2023-03-01T07:37:30;2.30;96.50
39621;DHT22;25309;48.686;9.170;2023-03-01T07:39:57;2.40;96.50
39621;DHT22;25309;48.686;9.170;2023-03-01T07:42:24;2.50;96.40
39621;DHT22;25309;48.686;9.170;2023-03-01T07:44:51;2.70;96.30
39621;DHT22;25309;48.686;9.170;2023-03-01T07:47:19;2.90;96.10
39621;DHT22;25309;48.686;9.170;2023-03-01T07:49:46;3.10;95.80
39621;DHT22;25309;48.686;9.170;2023-03-01T07:52:13;3.40;95.40
39621;DHT22;25309;48.686;9.170;2023-03-01T07:54:42;3.80;95.20
39621;DHT22;25309;48.686;9.170;2023-03-01T07:57:10;4.40;94.70
39621;DHT22;25309;48.686;9.170;2023-03-01T07:59:38;5.00;93.90
39621;DHT22;25309;48.686;9.170;2023-03-01T08:02:05;5.50;93.30
39621;DHT22;25309;48.686;9.170;2023-03-01T08:04:34;6.00;92.70
39621;DHT22;25309;48.686;9.170;2023-03-01T08:07:01;6.50;91.70
39621;DHT22;25309;48.686;9.170;2023-03-01T08:09:27;6.80;91.50
39621;DHT22;25309;48.686;9.170;2023-03-01T08:11:56;7.30;91.30
39621;DHT22;25309;48.686;9.170;2023-03-01T08:14:23;7.80;90.70
39621;DHT22;25309;48.686;9.170;2023-03-01T08:16:50;8.20;90.00
39621;DHT22;25309;48.686;9.170;2023-03-01T08:19:18;8.50;88.80
39621;DHT22;25309;48.686;9.170;2023-03-01T08:21:46;8.80;88.20
39621;DHT22;25309;48.686;9.170;2023-03-01T08:24:13;9.00;85.90
39621;DHT22;25309;48.686;9.170;2023-03-01T08:26:40;9.40;86.40
39621;DHT22;25309;48.686;9.170;2023-03-01T08:29:07;9.90;85.30
39621;DHT22;25309;48.686;9.170;2023-03-01T08:31:36;10.20;84.10
39621;DHT22;25309;48.686;9.170;2023-03-01T08:34:07;10.50;83.50
39621;DHT22;25309;48.686;9.170;2023-03-01T08:36:37;10.90;82.80
39621;DHT22;25309;48.686;9.170;2023-03-01T08:39:06;11.20;81.70
39621;DHT22;25309;48.686;9.170;2023-03-01T08:41:33;11.50;81.20
39621;DHT22;25309;48.686;9.170;2023-03-01T08:44:00;11.70;79.60
39621;DHT22;25309;48.686;9.170;2023-03-01T08:46:27;11.90;79.70
39621;DHT22;25309;48.686;9.170;2023-03-01T08:48:55;12.00;78.80
39621;DHT22;25309;48.686;9.170;2023-03-01T08:51:23;12.40;78.80
39621;DHT22;25309;48.686;9.170;2023-03-01T08:53:50;12.80;78.00
39621;DHT22;25309;48.686;9.170;2023-03-01T08:56:19;13.10;76.80
39621;DHT22;25309;48.686;9.170;2023-03-01T08:58:46;13.30;76.60
39621;DHT22;25309;48.686;9.170;2023-03-01T09:01:16;13.30;75.80
39621;DHT22;25309;48.686;9.170;2023-03-01T09:03:44;13.20;74.20
39621;DHT22;25309;48.686;9.170;2023-03-01T09:06:11;13.10;72.60
39621;DHT22;25309;48.686;9.170;2023-03-01T09:08:40;12.60;75.30
39621;DHT22;25309;48.686;9.170;2023-03-01T09:11:09;13.00;75.50
39621;DHT22;25309;48.686;9.170;2023-03-01T09:13:37;13.50;74.70
39621;DHT22;25309;48.686;9.170;2023-03-01T09:16:06;13.40;72.70
39621;DHT22;25309;48.686;9.170;2023-03-01T09:18:34;13.50;73.00
39621;DHT22;25309;48.686;9.170;2023-03-01T09:21:02;13.90;72.40
39621;DHT22;25309;48.686;9.170;2023-03-01T09:23:34;14.10;70.80
39621;DHT22;25309;48.686;9.170;2023-03-01T09:26:03;13.40;70.30
39621;DHT22;25309;48.686;9.170;2023-03-01T09:28:30;13.50;73.00
39621;DHT22;25309;48.686;9.170;2023-03-01T09:30:59;14.10;72.20
39621;DHT22;25309;48.686;9.170;2023-03-01T09:33:26;14.60;70.30
39621;DHT22;25309;48.686;9.170;2023-03-01T09:35:56;14.90;69.70
39621;DHT22;25309;48.686;9.170;2023-03-01T09:38:23;15.30;69.00
39621;DHT22;25309;48.686;9.170;2023-03-01T09:40:53;15.30;68.00
39621;DHT22;25309;48.686;9.170;2023-03-01T09:43:25;15.60;68.30
39621;DHT22;25309;48.686;9.170;2023-03-01T09:45:55;15.50;67.80
39621;DHT22;25309;48.686;9.170;2023-03-01T09:48:26;15.60;67.50
39621;DHT22;25309;48.686;9.170;2023-03-01T09:50:54;15.40;66.00
39621;DHT22;25309;48.686;9.170;2023-03-01T09:53:27;14.80;66.40
39621;DHT22;25309;48.686;9.170;2023-03-01T09:56:00;14.90;67.20
39621;DHT22;25309;48.686;9.170;2023-03-01T09:58:34;14.50;68.00
39621;DHT22;25309;48.686;9.170;2023-03-01T10:01:20;14.80;68.40
39621;DHT22;25309;48.686;9.170;2023-03-01T10:04:00;14.30;68.90
39621;DHT22;25309;48.686;9.170;2023-03-01T10:06:31;13.70;70.30
39621;DHT22;25309;48.686;9.170;2023-03-01T10:09:05;13.70;71.10
39621;DHT22;25309;48.686;9.170;2023-03-01T10:11:36;13.90;70.60
39621;DHT22;25309;48.686;9.170;2023-03-01T10:14:12;14.00;70.70
39621;DHT22;25309;48.686;9.170;2023-03-01T10:16:48;14.00;70.00
39621;DHT22;25309;48.686;9.170;2023-03-01T10:19:21;13.90;70.10
39621;DHT22;25309;48.686;9.170;2023-03-01T10:21:51;13.90;71.30
39621;DHT22;25309;48.686;9.170;2023-03-01T10:24:19;13.30;68.90
39621;DHT22;25309;48.686;9.170;2023-03-01T10:26:54;12.90;70.00
39621;DHT22;25309;48.686;9.170;2023-03-01T10:29:24;12.70;71.30
39621;DHT22;25309;48.686;9.170;2023-03-01T10:31:54;12.90;71.40
39621;DHT22;25309;48.686;9.170;2023-03-01T10:34:28;12.90;71.50
39621;DHT22;25309;48.686;9.170;2023-03-01T10:36:57;13.20;71.40
39621;DHT22;25309;48.686;9.170;2023-03-01T10:39:26;13.20;69.20
39621;DHT22;25309;48.686;9.170;2023-03-01T10:41:56;13.10;69.60
39621;DHT22;25309;48.686;9.170;2023-03-01T10:44:43;12.40;72.00
39621;DHT22;25309;48.686;9.170;2023-03-01T10:47:17;12.50;71.80
39621;DHT22;25309;48.686;9.170;2023-03-01T10:49:57;12.70;71.60
39621;DHT22;25309;48.686;9.170;2023-03-01T10:52:33;12.90;71.00
39621;DHT22;25309;48.686;9.170;2023-03-01T10:55:03;13.00;71.20
39621;DHT22;25309;48.686;9.170;2023-03-01T10:57:34;13.30;71.40
39621;DHT22;25309;48.686;9.170;2023-03-01T11:00:20;13.60;70.10
39621;DHT22;25309;48.686;9.170;2023-03-01T11:02:51;13.50;68.40
39621;DHT22;25309;48.686;9.170;2023-03-01T11:05:29;13.10;69.60
39621;DHT22;25309;48.686;9.170;2023-03-01T11:08:01;13.00;70.20
39621;DHT22;25309;48.686;9.170;2023-03-01T11:10:30;13.20;71.40
39621;DHT22;25309;48.686;9.170;2023-03-01T11:13:13;13.50;70.50
39621;DHT22;25309;48.686;9.170;2023-03-01T11:15:41;13.70;70.30
39621;DHT22;25309;48.686;9.170;2023-03-01T11:18:20;14.00;69.40
39621;DHT22;25309;48.686;9.170;2023-03-01T11:20:56;14.20;67.90
39621;DHT22;25309;48.686;9.170;2023-03-01T11:23:25;14.20;67.60
39621;DHT22;25309;48.686;9.170;2023-03-01T11:25:56;14.30;67.50
39621;DHT22;25309;48.686;9.170;2023-03-01T11:28:24;13.60;67.40
39621;DHT22;25309;48.686;9.170;2023-03-01T11:30:57;13.40;70.50
39621;DHT22;25309;48.686;9.170;2023-03-01T11:33:42;13.70;70.80
39621;DHT22;25309;48.686;9.170;2023-03-01T11:36:27;13.90;69.50
39621;DHT22;25309;48.686;9.170;2023-03-01T11:38:56;14.20;69.00
39621;DHT22;25309;48.686;9.170;2023-03-01T11:41:26;14.50;68.60
39621;DHT22;25309;48.686;9.170;2023-03-01T11:43:58;14.70;68.20
39621;DHT22;25309;48.686;9.170;2023-03-01T11:49:47;14.90;68.40
39621;DHT22;25309;48.686;9.170;2023-03-01T11:52:27;15.00;68.20
39621;DHT22;25309;48.686;9.170;2023-03-01T11:55:08;15.20;68.10
39621;DHT22;25309;48.686;9.170;2023-03-01T11:57:54;15.30;67.00
39621;DHT22;25309;48.686;9.170;2023-03-01T12:00:40;15.30;67.00
39621;DHT22;25309;48.686;9.170;2023-03-01T12:03:27;15.30;67.20
39621;DHT22;25309;48.686;9.170;2023-03-01T12:06:06;15.30;67.00
39621;DHT22;25309;48.686;9.170;2023-03-01T12:08:41;15.40;66.20
39621;DHT22;25309;48.686;9.170;2023-03-01T12:11:19;15.40;66.80
39621;DHT22;25309;48.686;9.170;2023-03-01T12:14:05;15.60;66.90
39621;DHT22;25309;48.686;9.170;2023-03-01T12:16:57;15.80;65.60
39621;DHT22;25309;48.686;9.170;2023-03-01T12:22:29;15.90;64.90
39621;DHT22;25309;48.686;9.170;2023-03-01T12:25:22;15.90;65.00
39621;DHT22;25309;48.686;9.170;2023-03-01T12:28:08;15.90;64.90
39621;DHT22;25309;48.686;9.170;2023-03-01T12:30:51;15.90;65.60
39621;DHT22;25309;48.686;9.170;2023-03-01T12:33:26;15.90;64.90
39621;DHT22;25309;48.686;9.170;2023-03-01T12:38:49;15.90;64.90
39621;DHT22;25309;48.686;9.170;2023-03-01T12:41:46;16.00;64.80
39621;DHT22;25309;48.686;9.170;2023-03-01T12:44:33;15.90;65.00
39621;DHT22;25309;48.686;9.170;2023-03-01T12:47:18;15.90;64.40
39621;DHT22;25309;48.686;9.170;2023-03-01T12:49:49;16.00;65.00
39621;DHT22;25309;48.686;9.170;2023-03-01T12:52:22;16.10;64.80
39621;DHT22;25309;48.686;9.170;2023-03-01T12:54:51;16.20;64.20
39621;DHT22;25309;48.686;9.170;2023-03-01T12:57:26;16.30;64.60
39621;DHT22;25309;48.686;9.170;2023-03-01T13:00:17;16.30;63.70
39621;DHT22;25309;48.686;9.170;2023-03-01T13:02:49;16.30;63.30
39621;DHT22;25309;48.686;9.170;2023-03-01T13:05:24;16.20;64.00
39621;DHT22;25309;48.686;9.170;2023-03-01T13:08:00;16.20;64.10
39621;DHT22;25309;48.686;9.170;2023-03-01T13:10:33;16.30;64.40
39621;DHT22;25309;48.686;9.170;2023-03-01T13:13:13;16.50;64.30
39621;DHT22;25309;48.686;9.170;2023-03-01T13:15:40;16.50;63.80
39621;DHT22;25309;48.686;9.170;2023-03-01T13:18:28;16.50;64.10
39621;DHT22;25309;48.686;9.170;2023-03-01T13:20:56;16.40;64.00
39621;DHT22;25309;48.686;9.170;2023-03-01T13:23:27;16.30;64.00
39621;DHT22;25309;48.686;9.170;2023-03-01T13:26:11;16.30;64.10
39621;DHT22;25309;48.686;9.170;2023-03-01T13:29:01;16.30;64.30
39621;DHT22;25309;48.686;9.170;2023-03-01T13:31:58;16.20;63.90
39621;DHT22;25309;48.686;9.170;2023-03-01T13:34:41;16.10;63.90
39621;DHT22;25309;48.686;9.170;2023-03-01T13:37:10;16.10;64.60
39621;DHT22;25309;48.686;9.170;2023-03-01T13:39:40;16.10;64.60
39621;DHT22;25309;48.686;9.170;2023-03-01T13:42:39;16.30;65.20
39621;DHT22;25309;48.686;9.170;2023-03-01T13:45:23;16.40;64.30
39621;DHT22;25309;48.686;9.170;2023-03-01T13:47:56;16.50;64.20
39621;DHT22;25309;48.686;9.170;2023-03-01T13:50:27;16.50;64.10
39621;DHT22;25309;48.686;9.170;2023-03-01T13:52:57;16.50;63.70
39621;DHT22;25309;48.686;9.170;2023-03-01T13:55:32;16.50;64.20
39621;DHT22;25309;48.686;9.170;2023-03-01T13:58:04;16.50;63.50
39621;DHT22;25309;48.686;9.170;2023-03-01T14:00:38;16.40;63.40
39621;DHT22;25309;48.686;9.170;2023-03-01T14:03:10;16.20;64.40
39621;DHT22;25309;48.686;9.170;2023-03-01T14:05:40;16.30;64.40
39621;DHT22;25309;48.686;9.170;2023-03-01T14:08:20;16.30;64.00
39621;DHT22;25309;48.686;9.170;2023-03-01T14:11:05;16.30;64.20
39621;DHT22;25309;48.686;9.170;2023-03-01T14:13:47;16.30;64.30
39621;DHT22;25309;48.686;9.170;2023-03-01T14:16:25;16.30;64.10
39621;DHT22;25309;48.686;9.170;2023-03-01T14:19:04;16.10;64.00
39621;DHT22;25309;48.686;9.170;2023-03-01T14:21:32;15.80;65.10
39621;DHT22;25309;48.686;9.170;2023-03-01T14:23:59;15.80;64.90
39621;DHT22;25309;48.686;9.170;2023-03-01T14:26:27;15.80;65.50
39621;DHT22;25309;48.686;9.170;2023-03-01T14:28:54;15.80;65.50
39621;DHT22;25309;48.686;9.170;2023-03-01T14:31:37;15.90;65.40
39621;DHT22;25309;48.686;9.170;2023-03-01T14:34:20;15.90;65.20
39621;DHT22;25309;48.686;9.170;2023-03-01T14:36:47;15.90;65.10
39621;DHT22;25309;48.686;9.170;2023-03-01T14:39:22;15.80;65.40
39621;DHT22;25309;48.686;9.170;2023-03-01T14:41:50;15.60;65.40
39621;DHT22;25309;48.686;9.170;2023-03-01T14:44:21;15.40;66.10
39621;DHT22;25309;48.686;9.170;2023-03-01T14:46:54;15.30;66.00
39621;DHT22;25309;48.686;9.170;2023-03-01T14:49:24;15.20;66.10
39621;DHT22;25309;48.686;9.170;2023-03-01T14:51:54;15.10;66.70
39621;DHT22;25309;48.686;9.170;2023-03-01T14:54:25;14.90;66.80
39621;DHT22;25309;48.686;9.170;2023-03-01T14:56:58;14.80;67.40
39621;DHT22;25309;48.686;9.170;2023-03-01T14:59:26;14.70;67.20
39621;DHT22;25309;48.686;9.170;2023-03-01T15:01:56;14.60;67.70
39621;DHT22;25309;48.686;9.170;2023-03-01T15:04:24;14.40;68.10
39621;DHT22;25309;48.686;9.170;2023-03-01T15:06:53;14.40;67.70
39621;DHT22;25309;48.686;9.170;2023-03-01T15:09:23;14.40;67.70
39621;DHT22;25309;48.686;9.170;2023-03-01T15:11:51;14.30;68.30
39621;DHT22;25309;48.686;9.170;2023-03-01T15:14:29;14.10;68.10
39621;DHT22;25309;48.686;9.170;2023-03-01T15:17:21;14.00;68.20
39621;DHT22;25309;48.686;9.170;2023-03-01T15:19:53;14.00;68.80
39621;DHT22;25309;48.686;9.170;2023-03-01T15:22:23;13.80;68.80
39621;DHT22;25309;48.686;9.170;2023-03-01T15:24:51;13.70;69.80
39621;DHT22;25309;48.686;9.170;2023-03-01T15:27:23;13.60;69.40
39621;DHT22;25309;48.686;9.170;2023-03-01T15:29:53;13.40;69.90
39621;DHT22;25309;48.686;9.170;2023-03-01T15:32:28;13.30;70.60
39621;DHT22;25309;48.686;9.170;2023-03-01T15:34:56;13.20;70.30
39621;DHT22;25309;48.686;9.170;2023-03-01T15:37:39;13.20;70.50
39621;DHT22;25309;48.686;9.170;2023-03-01T15:40:20;13.20;70.40
39621;DHT22;25309;48.686;9.170;2023-03-01T15:42:48;13.10;70.40
39621;DHT22;25309;48.686;9.170;2023-03-01T15:45:23;13.10;70.60
39621;DHT22;25309;48.686;9.170;2023-03-01T15:47:53;13.00;70.70
39621;DHT22;25309;48.686;9.170;2023-03-01T15:50:25;12.80;70.90
39621;DHT22;25309;48.686;9.170;2023-03-01T15:52:52;12.70;71.30
39621;DHT22;25309;48.686;9.170;2023-03-01T15:55:21;12.50;71.50
39621;DHT22;25309;48.686;9.170;2023-03-01T15:57:49;12.30;71.80
39621;DHT22;25309;48.686;9.170;2023-03-01T16:00:17;12.20;72.40
39621;DHT22;25309;48.686;9.170;2023-03-01T16:02:45;12.10;73.10
39621;DHT22;25309;48.686;9.170;2023-03-01T16:05:20;12.10;72.90
39621;DHT22;25309;48.686;9.170;2023-03-01T16:07:47;12.10;72.80
39621;DHT22;25309;48.686;9.170;2023-03-01T16:10:14;11.90;72.60
39621;DHT22;25309;48.686;9.170;2023-03-01T16:12:41;11.80;72.70
39621;DHT22;25309;48.686;9.170;2023-03-01T16:15:15;11.60;73.30